createdAt,value
2024-02-20T00:00:57.629Z,7.60
2024-02-20T00:03:24.872Z,7.62
2024-02-20T00:06:04.559Z,7.52
2024-02-20T00:08:32.132Z,7.47
2024-02-20T00:11:03.010Z,7.36
2024-02-20T00:13:50.107Z,7.35
2024-02-20T00:16:20.711Z,7.36
2024-02-20T00:18:51.580Z,7.35
2024-02-20T00:21:39.994Z,7.37
2024-02-20T00:24:10.742Z,7.38
2024-02-20T00:26:37.861Z,7.39
2024-02-20T00:29:04.931Z,7.40
2024-02-20T00:31:33.753Z,7.38
2024-02-20T00:34:02.136Z,7.35
2024-02-20T00:36:29.839Z,7.35
2024-02-20T00:38:59.162Z,7.34
2024-02-20T00:41:32.572Z,7.31
2024-02-20T00:43:59.588Z,7.28
2024-02-20T00:46:28.331Z,7.27
2024-02-20T00:48:55.960Z,7.24
2024-02-20T00:51:27.360Z,7.23
2024-02-20T00:53:56.604Z,7.23
2024-02-20T00:56:23.616Z,7.21
2024-02-20T00:58:52.217Z,7.19
2024-02-20T01:01:20.050Z,7.19
2024-02-20T01:03:48.589Z,7.17
2024-02-20T01:06:16.161Z,7.15
2024-02-20T01:08:45.085Z,7.04
2024-02-20T01:11:12.338Z,6.91
2024-02-20T01:13:39.917Z,6.86
2024-02-20T01:16:09.164Z,6.80
2024-02-20T01:18:36.189Z,6.79
2024-02-20T01:21:03.666Z,6.73
2024-02-20T01:23:31.258Z,6.62
2024-02-20T01:26:00.215Z,6.58
2024-02-20T01:28:27.579Z,6.55
2024-02-20T01:30:56.540Z,6.58
2024-02-20T01:33:23.861Z,6.62
2024-02-20T01:35:51.332Z,6.68
2024-02-20T01:38:19.005Z,6.73
2024-02-20T01:40:46.564Z,6.80
2024-02-20T01:43:15.771Z,6.84
2024-02-20T01:45:43.887Z,6.85
2024-02-20T01:48:11.502Z,6.92
2024-02-20T01:50:39.229Z,6.98
2024-02-20T01:53:07.674Z,6.98
2024-02-20T01:55:37.353Z,6.97
2024-02-20T01:58:04.979Z,6.96
2024-02-20T02:00:32.514Z,6.93
2024-02-20T02:03:00.088Z,6.90
2024-02-20T02:05:27.842Z,6.88
2024-02-20T02:07:56.286Z,6.86
2024-02-20T02:10:24.835Z,6.83
2024-02-20T02:12:52.457Z,6.80
2024-02-20T02:15:21.396Z,6.77
2024-02-20T02:17:49.687Z,6.74
2024-02-20T02:20:18.326Z,6.73
2024-02-20T02:22:47.601Z,6.72
2024-02-20T02:25:15.540Z,6.71
2024-02-20T02:27:44.609Z,6.66
2024-02-20T02:30:11.704Z,6.65
2024-02-20T02:32:40.341Z,6.62
2024-02-20T02:35:09.582Z,6.61
2024-02-20T02:37:37.534Z,6.60
2024-02-20T02:40:05.234Z,6.60
2024-02-20T02:42:33.727Z,6.64
2024-02-20T02:45:02.340Z,6.65
2024-02-20T02:47:29.899Z,6.65
2024-02-20T02:49:58.663Z,6.69
2024-02-20T02:52:27.266Z,6.69
2024-02-20T02:54:55.781Z,6.63
2024-02-20T02:57:23.354Z,6.64
2024-02-20T02:59:51.988Z,6.64
2024-02-20T03:02:19.525Z,6.65
2024-02-20T03:04:48.203Z,6.62
2024-02-20T03:07:17.574Z,6.64
2024-02-20T03:09:45.405Z,6.64
2024-02-20T03:12:13.982Z,6.63
2024-02-20T03:14:42.582Z,6.60
2024-02-20T03:17:10.213Z,6.57
2024-02-20T03:19:37.871Z,6.58
2024-02-20T03:22:06.472Z,6.59
2024-02-20T03:24:35.367Z,6.58
2024-02-20T03:27:03.631Z,6.60
2024-02-20T03:29:32.244Z,6.62
2024-02-20T03:31:59.830Z,6.63
2024-02-20T03:34:29.123Z,6.65
2024-02-20T03:36:57.079Z,6.64
2024-02-20T03:39:26.332Z,6.69
2024-02-20T03:41:54.306Z,6.73
2024-02-20T03:44:21.874Z,6.77
2024-02-20T03:46:50.586Z,6.80
2024-02-20T03:49:19.401Z,6.83
2024-02-20T03:51:47.705Z,6.86
2024-02-20T03:54:16.329Z,6.92
2024-02-20T03:56:45.220Z,6.91
2024-02-20T03:59:12.516Z,6.93
2024-02-20T04:01:41.760Z,6.95
2024-02-20T04:04:08.864Z,6.98
2024-02-20T04:06:36.283Z,7.01
2024-02-20T04:09:05.271Z,7.03
2024-02-20T04:11:34.147Z,7.01
2024-02-20T04:14:02.047Z,7.04
2024-02-20T04:16:30.826Z,7.08
2024-02-20T04:18:58.576Z,7.08
2024-02-20T04:21:27.039Z,7.16
2024-02-20T04:23:55.620Z,7.18
2024-02-20T04:26:23.225Z,7.18
2024-02-20T04:28:50.833Z,7.13
2024-02-20T04:31:18.442Z,7.05
2024-02-20T04:33:47.040Z,7.00
2024-02-20T04:36:15.607Z,6.99
2024-02-20T04:38:44.718Z,7.01
2024-02-20T04:41:12.824Z,7.02
2024-02-20T04:43:41.470Z,6.99
2024-02-20T04:46:10.445Z,7.05
2024-02-20T04:48:38.660Z,7.08
2024-02-20T04:51:13.368Z,7.10
2024-02-20T04:53:42.404Z,7.12
2024-02-20T04:56:10.466Z,7.13
2024-02-20T04:58:38.174Z,7.12
2024-02-20T05:01:07.589Z,7.13
2024-02-20T05:03:35.474Z,7.12
2024-02-20T05:06:03.122Z,7.12
2024-02-20T05:08:31.762Z,7.06
2024-02-20T05:10:59.397Z,6.98
2024-02-20T05:13:27.948Z,6.96
2024-02-20T05:15:56.517Z,6.91
2024-02-20T05:18:24.120Z,6.84
2024-02-20T05:20:53.005Z,6.87
2024-02-20T05:23:21.314Z,6.93
2024-02-20T05:25:50.516Z,6.96
2024-02-20T05:28:17.557Z,6.97
2024-02-20T05:30:45.075Z,7.01
2024-02-20T05:33:12.798Z,7.07
2024-02-20T05:35:41.329Z,7.11
2024-02-20T05:38:08.913Z,7.09
2024-02-20T05:40:35.543Z,7.10
2024-02-20T05:43:04.193Z,7.10
2024-02-20T05:45:31.679Z,7.06
2024-02-20T05:47:59.499Z,7.04
2024-02-20T05:50:28.438Z,7.05
2024-02-20T05:52:55.533Z,7.08
2024-02-20T05:55:24.425Z,7.07
2024-02-20T05:57:51.806Z,6.99
2024-02-20T06:00:19.428Z,7.01
2024-02-20T06:02:46.993Z,7.00
2024-02-20T06:05:15.963Z,6.94
2024-02-20T06:07:43.322Z,6.89
2024-02-20T06:10:11.871Z,6.89
2024-02-20T06:12:40.926Z,6.92
2024-02-20T06:15:08.113Z,6.93
2024-02-20T06:17:37.092Z,6.94
2024-02-20T06:20:04.508Z,6.83
2024-02-20T06:22:33.271Z,6.78
2024-02-20T06:25:00.580Z,6.85
2024-02-20T06:27:28.219Z,6.89
2024-02-20T06:29:55.815Z,6.94
2024-02-20T06:32:23.343Z,6.95
2024-02-20T06:34:50.582Z,6.98
2024-02-20T06:37:18.595Z,7.03
2024-02-20T06:39:47.539Z,7.08
2024-02-20T06:42:14.715Z,7.11
2024-02-20T06:44:42.323Z,7.13
2024-02-20T06:47:09.891Z,7.15
2024-02-20T06:49:38.690Z,7.18
2024-02-20T06:52:07.243Z,7.24
2024-02-20T06:54:35.826Z,7.24
2024-02-20T06:57:03.408Z,7.28
2024-02-20T06:59:30.073Z,7.30
2024-02-20T07:01:58.773Z,7.32
2024-02-20T07:04:26.412Z,7.33
2024-02-20T07:06:53.941Z,7.32
2024-02-20T07:09:25.424Z,7.33
2024-02-20T07:11:53.096Z,7.39
2024-02-20T07:14:20.652Z,7.45
2024-02-20T07:16:48.311Z,7.48
2024-02-20T07:19:15.936Z,7.47
2024-02-20T07:21:43.542Z,7.53
2024-02-20T07:24:11.091Z,7.58
2024-02-20T07:26:37.702Z,7.66
2024-02-20T07:29:06.813Z,7.72
2024-02-20T07:31:36.408Z,7.80
2024-02-20T07:34:09.978Z,7.88
2024-02-20T07:36:38.145Z,7.97
2024-02-20T07:39:07.093Z,8.04
2024-02-20T07:41:35.372Z,8.07
2024-02-20T07:44:02.966Z,8.11
2024-02-20T07:46:31.575Z,8.12
2024-02-20T07:49:00.275Z,8.11
2024-02-20T07:51:27.722Z,8.11
2024-02-20T07:53:55.323Z,8.12
2024-02-20T07:56:23.905Z,8.18
2024-02-20T07:58:51.560Z,8.24
2024-02-20T08:01:22.398Z,8.31
2024-02-20T08:03:49.733Z,8.42
2024-02-20T08:06:17.305Z,8.55
2024-02-20T08:08:45.901Z,8.61
2024-02-20T08:11:13.609Z,8.68
2024-02-20T08:13:42.153Z,8.68
2024-02-20T08:16:09.741Z,8.72
2024-02-20T08:18:37.377Z,8.73
2024-02-20T08:21:04.891Z,8.73
2024-02-20T08:23:32.494Z,8.69
2024-02-20T08:26:00.066Z,8.62
2024-02-20T08:28:29.077Z,8.59
2024-02-20T08:30:56.330Z,8.58
2024-02-20T08:33:23.918Z,8.56
2024-02-20T08:35:51.467Z,8.55
2024-02-20T08:38:20.082Z,8.55
2024-02-20T08:40:47.649Z,8.52
2024-02-20T08:43:16.281Z,8.49
2024-02-20T08:45:43.830Z,8.48
2024-02-20T08:48:10.652Z,8.42
2024-02-20T08:50:38.143Z,8.41
2024-02-20T08:55:45.432Z,8.34
2024-02-20T08:58:12.981Z,8.31
2024-02-20T09:00:41.679Z,8.42
2024-02-20T09:03:09.129Z,8.51
2024-02-20T09:05:36.962Z,8.62
2024-02-20T09:08:06.387Z,8.67
2024-02-20T09:10:35.009Z,8.69
2024-02-20T09:13:03.586Z,8.83
2024-02-20T09:15:32.143Z,8.90
2024-02-20T09:18:00.794Z,9.04
2024-02-20T09:20:29.489Z,9.18
2024-02-20T09:22:58.490Z,9.29
2024-02-20T09:25:26.538Z,9.43
2024-02-20T09:27:55.741Z,9.55
2024-02-20T09:30:23.695Z,9.70
2024-02-20T09:32:53.067Z,9.82
2024-02-20T09:35:22.797Z,9.97
2024-02-20T09:37:50.527Z,10.03
2024-02-20T09:40:22.389Z,10.20
2024-02-20T09:42:50.766Z,10.36
2024-02-20T09:45:19.999Z,10.53
2024-02-20T09:50:30.951Z,10.76
2024-02-20T09:53:00.217Z,10.85
2024-02-20T09:55:28.948Z,11.01
2024-02-20T09:57:56.704Z,11.15
2024-02-20T10:00:23.577Z,11.24
2024-02-20T10:02:50.490Z,11.36
2024-02-20T10:05:19.972Z,11.49
2024-02-20T10:07:47.788Z,11.55
2024-02-20T10:10:15.346Z,11.44
2024-02-20T10:12:42.948Z,11.41
2024-02-20T10:15:11.473Z,11.41
2024-02-20T10:17:40.439Z,11.45
2024-02-20T10:20:08.792Z,11.51
2024-02-20T10:22:36.336Z,11.58
2024-02-20T10:25:05.056Z,11.70
2024-02-20T10:27:32.447Z,11.77
2024-02-20T10:30:00.044Z,11.89
2024-02-20T10:32:27.668Z,11.93
2024-02-20T10:34:55.303Z,11.98
2024-02-20T10:37:22.448Z,12.02
2024-02-20T10:39:48.939Z,12.10
2024-02-20T10:42:15.437Z,12.16
2024-02-20T10:44:41.945Z,12.18
2024-02-20T10:47:09.197Z,12.22
2024-02-20T10:49:36.757Z,12.20
2024-02-20T10:52:03.786Z,12.28
2024-02-20T10:54:39.113Z,12.29
2024-02-20T10:57:12.565Z,12.41
2024-02-20T10:59:39.078Z,12.59
2024-02-20T11:02:05.793Z,12.75
2024-02-20T11:04:33.377Z,12.81
2024-02-20T11:07:01.010Z,12.94
2024-02-20T11:09:28.520Z,13.03
2024-02-20T11:11:56.102Z,13.03
2024-02-20T11:14:22.612Z,12.99
2024-02-20T11:16:51.674Z,13.02
2024-02-20T11:19:19.053Z,13.00
2024-02-20T11:21:47.499Z,13.04
2024-02-20T11:24:17.807Z,13.09
2024-02-20T11:26:45.695Z,13.15
2024-02-20T11:29:12.283Z,13.28
2024-02-20T11:31:38.848Z,13.19
2024-02-20T11:34:07.659Z,13.05
2024-02-20T11:36:35.076Z,12.94
2024-02-20T11:39:03.669Z,12.87
2024-02-20T11:41:31.255Z,12.71
2024-02-20T11:43:58.843Z,12.72
2024-02-20T11:46:27.487Z,12.71
2024-02-20T11:48:55.114Z,12.72
2024-02-20T11:51:21.877Z,12.82
2024-02-20T11:53:49.295Z,12.87
2024-02-20T11:56:16.969Z,12.93
2024-02-20T11:58:44.549Z,13.03
2024-02-20T12:01:12.070Z,13.18
2024-02-20T12:03:39.600Z,13.35
2024-02-20T12:06:07.005Z,13.43
2024-02-20T12:08:34.020Z,13.51
2024-02-20T12:11:01.527Z,13.63
2024-02-20T12:13:28.986Z,13.67
2024-02-20T12:15:55.532Z,13.63
2024-02-20T12:18:23.215Z,13.64
2024-02-20T12:20:52.357Z,13.60
2024-02-20T12:23:20.351Z,13.51
2024-02-20T12:25:48.093Z,13.51
2024-02-20T12:28:16.529Z,13.41
2024-02-20T12:30:44.119Z,13.36
2024-02-20T12:33:11.791Z,13.34
2024-02-20T12:35:40.350Z,13.27
2024-02-20T12:38:07.918Z,13.20
2024-02-20T12:40:34.803Z,13.15
2024-02-20T12:43:02.671Z,13.02
2024-02-20T12:45:29.217Z,12.92
2024-02-20T12:47:57.318Z,12.82
2024-02-20T12:50:24.885Z,12.81
2024-02-20T12:52:52.474Z,12.77
2024-02-20T12:55:20.087Z,12.79
2024-02-20T12:57:47.662Z,12.79
2024-02-20T13:00:15.238Z,12.79
2024-02-20T13:02:41.904Z,12.78
2024-02-20T13:05:09.566Z,12.70
2024-02-20T13:07:37.082Z,12.65
2024-02-20T13:10:04.669Z,12.73
2024-02-20T13:12:32.204Z,12.78
2024-02-20T13:14:59.200Z,12.86
2024-02-20T13:17:26.494Z,12.95
2024-02-20T13:19:54.048Z,13.02
2024-02-20T13:22:21.576Z,13.12
2024-02-20T13:24:48.165Z,13.16
2024-02-20T13:27:15.785Z,13.17
2024-02-20T13:29:42.296Z,13.22
2024-02-20T13:32:10.973Z,13.19
2024-02-20T13:34:39.651Z,13.10
2024-02-20T13:37:07.142Z,13.03
2024-02-20T13:39:34.742Z,12.90
2024-02-20T13:42:01.670Z,12.83
2024-02-20T13:44:28.912Z,12.82
2024-02-20T13:47:03.334Z,12.85
2024-02-20T13:49:34.198Z,12.87
2024-02-20T13:52:02.913Z,12.94
2024-02-20T13:54:30.354Z,12.99
2024-02-20T13:56:58.971Z,12.96
2024-02-20T13:59:26.512Z,12.83
2024-02-20T14:01:53.046Z,12.74
2024-02-20T14:04:19.663Z,12.62
2024-02-20T14:06:46.311Z,12.57
2024-02-20T14:09:12.966Z,12.69
2024-02-20T14:11:39.546Z,12.80
2024-02-20T14:14:06.066Z,12.68
2024-02-20T14:16:32.635Z,12.68
2024-02-20T14:19:00.284Z,12.65
2024-02-20T14:21:27.846Z,12.64
2024-02-20T14:23:55.460Z,12.59
2024-02-20T14:26:25.681Z,12.58
2024-02-20T14:28:52.594Z,12.59
2024-02-20T14:31:19.346Z,12.60
2024-02-20T14:33:46.041Z,12.58
2024-02-20T14:36:13.402Z,12.55
2024-02-20T14:38:40.328Z,12.55
2024-02-20T14:41:07.551Z,12.49
2024-02-20T14:43:35.193Z,12.50
2024-02-20T14:46:02.826Z,12.54
2024-02-20T14:48:30.381Z,12.59
2024-02-20T14:50:57.916Z,12.56
2024-02-20T14:53:25.520Z,12.54
2024-02-20T14:55:52.094Z,12.52
2024-02-20T14:58:18.749Z,12.45
2024-02-20T15:00:46.310Z,12.42
2024-02-20T15:03:13.890Z,12.27
2024-02-20T15:05:40.630Z,12.14
2024-02-20T15:08:08.112Z,12.03
2024-02-20T15:10:34.718Z,12.03
2024-02-20T15:13:01.244Z,11.95
2024-02-20T15:15:27.852Z,11.85
2024-02-20T15:17:54.455Z,11.83
2024-02-20T15:20:22.076Z,11.77
2024-02-20T15:22:49.722Z,11.70
2024-02-20T15:25:17.967Z,11.67
2024-02-20T15:27:45.827Z,11.61
2024-02-20T15:30:13.417Z,11.54
2024-02-20T15:32:41.191Z,11.49
2024-02-20T15:35:09.046Z,11.46
2024-02-20T15:37:35.746Z,11.40
2024-02-20T15:40:02.829Z,11.32
2024-02-20T15:42:29.763Z,11.26
2024-02-20T15:44:56.999Z,11.12
2024-02-20T15:47:24.618Z,11.07
2024-02-20T15:49:52.255Z,11.00
2024-02-20T15:52:18.827Z,10.95
2024-02-20T15:54:45.376Z,10.89
2024-02-20T15:57:11.901Z,10.79
2024-02-20T15:59:38.553Z,10.67
2024-02-20T16:02:05.223Z,10.52
2024-02-20T16:04:32.810Z,10.38
2024-02-20T16:07:00.383Z,10.24
2024-02-20T16:09:27.974Z,10.12
2024-02-20T16:11:54.772Z,10.06
2024-02-20T16:14:21.272Z,9.99
2024-02-20T16:16:47.793Z,9.95
2024-02-20T16:19:15.432Z,9.87
2024-02-20T16:21:42.884Z,9.79
2024-02-20T16:24:09.383Z,9.74
2024-02-20T16:26:37.613Z,9.67
2024-02-20T16:36:59.576Z,9.43
2024-02-20T16:39:47.340Z,9.37
2024-02-20T16:42:15.966Z,9.31
2024-02-20T16:44:43.815Z,9.22
2024-02-20T16:47:12.481Z,9.05
2024-02-20T16:49:40.230Z,8.72
2024-02-20T16:52:07.717Z,8.40
2024-02-20T16:54:35.217Z,8.17
2024-02-20T16:57:03.824Z,8.01
2024-02-20T16:59:37.266Z,7.85
2024-02-20T17:02:11.163Z,7.74
2024-02-20T17:04:39.827Z,7.66
2024-02-20T17:07:09.200Z,7.64
2024-02-20T17:09:37.895Z,7.60
2024-02-20T17:12:07.216Z,7.52
2024-02-20T17:14:42.137Z,7.40
2024-02-20T17:17:10.936Z,7.27
2024-02-20T17:19:40.413Z,7.24
2024-02-20T17:22:09.404Z,7.22
2024-02-20T17:24:38.478Z,7.19
2024-02-20T17:27:30.388Z,7.13
2024-02-20T17:30:03.485Z,7.09
2024-02-20T17:32:30.590Z,7.12
2024-02-20T17:34:59.193Z,7.15
2024-02-20T17:37:28.293Z,7.16
2024-02-20T17:40:06.279Z,7.07
2024-02-20T17:42:55.953Z,6.99
2024-02-20T17:45:26.544Z,6.87
2024-02-20T17:47:56.261Z,6.73
2024-02-20T17:50:24.872Z,6.63
2024-02-20T17:53:06.589Z,6.59
2024-02-20T17:55:35.145Z,6.54
2024-02-20T17:58:07.169Z,6.51
2024-02-20T18:00:44.369Z,6.43
2024-02-20T18:05:53.631Z,6.29
2024-02-20T18:08:22.151Z,6.22
2024-02-20T18:10:51.008Z,6.15
2024-02-20T18:13:19.380Z,6.07
2024-02-20T18:15:48.275Z,6.02
2024-02-20T18:18:15.613Z,5.98
2024-02-20T18:20:43.128Z,5.94
2024-02-20T18:23:10.710Z,5.88
2024-02-20T18:25:45.226Z,5.87
2024-02-20T18:28:12.137Z,5.84
2024-02-20T18:30:40.510Z,5.81
2024-02-20T18:33:09.325Z,5.81
2024-02-20T18:35:37.949Z,5.81
2024-02-20T18:38:06.525Z,5.78
2024-02-20T18:40:35.085Z,5.75
2024-02-20T18:43:02.605Z,5.72
2024-02-20T18:45:30.483Z,5.71
2024-02-20T18:47:58.001Z,5.72
2024-02-20T18:50:26.920Z,5.72
2024-02-20T18:52:55.197Z,5.73
2024-02-20T18:55:29.687Z,5.76
2024-02-20T18:57:58.577Z,5.78
2024-02-20T19:00:26.878Z,5.88
2024-02-20T19:02:54.542Z,5.92
2024-02-20T19:05:23.706Z,5.95
2024-02-20T19:07:51.651Z,6.02
2024-02-20T19:10:19.347Z,6.08
2024-02-20T19:12:47.808Z,6.15
2024-02-20T19:15:16.847Z,6.15
2024-02-20T19:17:45.078Z,6.12
2024-02-20T19:20:12.694Z,6.15
2024-02-20T19:22:41.955Z,6.17
2024-02-20T19:25:09.881Z,6.21
2024-02-20T19:27:39.344Z,6.23
2024-02-20T19:30:06.004Z,6.21
2024-02-20T19:32:33.608Z,6.25
2024-02-20T19:35:01.258Z,6.19
2024-02-20T19:37:30.583Z,6.17
2024-02-20T19:39:58.357Z,6.18
2024-02-20T19:42:26.155Z,6.16
2024-02-20T19:44:54.592Z,6.12
2024-02-20T19:47:22.188Z,6.09
2024-02-20T19:49:51.260Z,6.06
2024-02-20T19:52:18.515Z,6.02
2024-02-20T19:54:46.057Z,6.06
2024-02-20T19:57:15.065Z,6.01
2024-02-20T19:59:43.210Z,5.99
2024-02-20T20:02:12.135Z,5.96
2024-02-20T20:04:40.478Z,5.94
2024-02-20T20:07:09.362Z,5.96
2024-02-20T20:12:21.214Z,5.94
2024-02-20T20:14:49.979Z,5.94
2024-02-20T20:17:17.504Z,5.92
2024-02-20T20:19:45.124Z,5.87
2024-02-20T20:22:14.035Z,5.90
2024-02-20T20:24:41.273Z,5.89
2024-02-20T20:27:08.813Z,5.85
2024-02-20T20:29:37.440Z,5.84
2024-02-20T20:32:04.989Z,5.83
2024-02-20T20:34:33.954Z,5.84
2024-02-20T20:37:03.104Z,5.84
2024-02-20T20:39:30.820Z,5.88
2024-02-20T20:41:58.385Z,5.94
2024-02-20T20:44:27.490Z,5.99
2024-02-20T20:46:54.740Z,5.91
2024-02-20T20:49:23.906Z,5.95
2024-02-20T20:51:52.784Z,5.87
2024-02-20T20:54:20.382Z,5.88
2024-02-20T20:56:55.684Z,5.83
2024-02-20T20:59:29.187Z,5.72
2024-02-20T21:01:56.304Z,5.70
2024-02-20T21:04:27.471Z,5.65
2024-02-20T21:06:57.452Z,5.64
2024-02-20T21:12:12.381Z,5.63
2024-02-20T21:17:27.980Z,5.61
2024-02-20T21:19:38.833Z,5.63
2024-02-20T21:20:12.784Z,5.63
2024-02-20T21:22:44.544Z,5.53
2024-02-20T21:25:12.868Z,5.49
2024-02-20T21:27:43.745Z,5.44
2024-02-20T21:30:22.484Z,5.36
2024-02-20T21:35:16.919Z,5.25
2024-02-20T21:35:55.724Z,5.24
2024-02-20T21:43:48.392Z,5.13
2024-02-20T22:03:07.872Z,5.38
2024-02-20T22:19:25.011Z,5.39
2024-02-20T22:22:04.507Z,5.42
2024-02-20T22:24:31.238Z,5.40
2024-02-20T22:26:58.860Z,5.39
2024-02-20T22:29:27.774Z,5.43
2024-02-20T22:31:56.432Z,5.36
2024-02-20T22:34:46.272Z,5.29
2024-02-20T22:37:14.324Z,5.24
2024-02-20T22:40:28.692Z,5.21
2024-02-20T22:42:31.625Z,5.19
2024-02-20T22:44:59.252Z,5.13
2024-02-20T22:47:57.296Z,5.12
2024-02-20T22:50:38.643Z,5.17
2024-02-20T22:53:07.921Z,5.23
2024-02-20T22:56:06.229Z,5.27
2024-02-20T22:58:36.901Z,5.34
2024-02-20T23:03:45.851Z,5.40
2024-02-20T23:07:00.939Z,5.37
2024-02-20T23:09:04.223Z,5.32
2024-02-20T23:11:35.636Z,5.26
2024-02-20T23:14:04.410Z,5.24
2024-02-20T23:16:33.783Z,5.22
2024-02-20T23:19:06.353Z,5.23
2024-02-20T23:21:36.875Z,5.19
2024-02-20T23:27:04.492Z,5.11
2024-02-20T23:30:18.506Z,5.09
2024-02-20T23:32:25.149Z,5.11
2024-02-20T23:34:54.941Z,5.15
2024-02-20T23:37:26.164Z,5.17
2024-02-20T23:40:05.571Z,5.17
2024-02-20T23:45:26.569Z,5.11
2024-02-20T23:47:57.563Z,5.10
2024-02-20T23:56:58.840Z,4.97
2024-02-20T23:59:56.565Z,4.99
